Strona główna
METAR-TAF:

METAR-TAF

Lotnisko :

Port lotniczy Manchester

Manchester, Anglia

Szerokość geograficzna: 53-21N, Długość geograficzna: 002-17W, wysokość: 69 m

Aktualna obserwacja pogody

Raport powstał 44 minut temu, godzina 13:20 UTC
Wiatr 6 kt od południe, zmienny między południowy wschód i południowy zachód
Temperatura 6°C
Wilgotność 81%
Ciśnienie 998 hPa
Widzialność 10 km lub więcej

METAR: EGCC 161320Z AUTO 19006KT 140V230 9999 NCD 06/03 Q0998 NOSIG

czas: 14:04 (14:04 UTC)

Prognoza

Raport powstał 3 godziny i 7 minut temu, godzina 10:57 UTC
Prognoza ważna od 16 godzina 12 UTC do 17 godzina 18 UTC
Wiatr 8 kt od południe
Widzialność 10 km lub więcej
Mało chmury na wysokości 4000 ft
Prawdopodobieństwo 40%
od 17 godzina 00 UTC do 17 godzina 09 UTC
Widzialność: 7000 m
Prawdopodobieństwo 30%
od 17 godzina 04 UTC do 17 godzina 10 UTC
Widzialność: 3000 m
zamglenie

TAF: EGCC 161057Z 1612/1718 18008KT 9999 FEW040 PROB40 1700/1709 7000 PROB30 1704/1710 3000 BR

Obserwacja i prognoza pogody dla ponad 4000 lotnisk (raport METAR i TAF).

Dostępne stacje oznaczono żółtymi i czerwonymi punktami na mapie.

Najedź kursorem aby zobaczyć nazwę stacji.

Kliknij aby zobaczyć obserwacje i prognozy pogody.

Aby zmienić mapę: kliknij na zielony przycisk z czarnym krzyżykiem, aby powiększyć; na zielony przycisk z myślnikiem, aby pomniejszyć; na zielone strzałki, aby przejść do map sąsiednich.


METAR-TAF: